North Waterboro, Maine
Current Conditions -  °F | °C
As of 5:55 PM on Wednesday 22 Oct 2014 (Local Time) from KSFM Reporting Station
Overcast Overcast  
Wind Chill: 39°   Ceiling: 700
Heat Index: 46°   Visibility: 3mi
Dew Point: 41°   Wind: 22mph
Humidity: 81%   Direction: 30°NNE
Pressure: 30.02"   Gusts: 29mph
Location:  43.62°N, 70.74°W
Report Text: KSFM 222155Z AUTO 03019G25KT 3SM BKN007 OVC014 08/05 A3002 RMK AO1 P0002
Loading
Personal Weather Stations






























Interactive Weather Map
Tropical Storm Tracking
New forecast layout! Learn more

10-Day Weather Forecast

Advertisements
Track Severe Weather on mobile